sensor_id;sensor_type;location;lat;lon;timestamp;temperature;humidity
42187;DHT22;27858;51.414;0.018;2022-12-29T00:01:41;10.20;99.90
42187;DHT22;27858;51.414;0.018;2022-12-29T00:04:12;10.20;99.90
42187;DHT22;27858;51.414;0.018;2022-12-29T00:06:42;10.20;99.90
42187;DHT22;27858;51.414;0.018;2022-12-29T00:09:11;10.40;99.90
42187;DHT22;27858;51.414;0.018;2022-12-29T00:11:39;10.40;99.90
42187;DHT22;27858;51.414;0.018;2022-12-29T00:14:06;10.30;99.90
42187;DHT22;27858;51.414;0.018;2022-12-29T00:16:53;10.30;99.90
42187;DHT22;27858;51.414;0.018;2022-12-29T00:19:20;10.30;99.90
42187;DHT22;27858;51.414;0.018;2022-12-29T00:22:06;10.30;99.90
42187;DHT22;27858;51.414;0.018;2022-12-29T00:24:53;10.20;99.90
42187;DHT22;27858;51.414;0.018;2022-12-29T00:27:20;10.40;99.90
42187;DHT22;27858;51.414;0.018;2022-12-29T00:30:09;10.20;99.90
42187;DHT22;27858;51.414;0.018;2022-12-29T00:32:55;10.20;99.90
42187;DHT22;27858;51.414;0.018;2022-12-29T00:35:46;10.20;99.90
42187;DHT22;27858;51.414;0.018;2022-12-29T00:38:14;10.10;99.90
42187;DHT22;27858;51.414;0.018;2022-12-29T00:41:00;10.10;99.90
42187;DHT22;27858;51.414;0.018;2022-12-29T00:43:45;10.00;99.90
42187;DHT22;27858;51.414;0.018;2022-12-29T00:46:34;10.00;99.90
42187;DHT22;27858;51.414;0.018;2022-12-29T00:49:02;9.90;99.90
42187;DHT22;27858;51.414;0.018;2022-12-29T00:51:48;10.00;99.90
42187;DHT22;27858;51.414;0.018;2022-12-29T00:54:15;10.10;99.90
42187;DHT22;27858;51.414;0.018;2022-12-29T00:56:46;10.10;99.90
42187;DHT22;27858;51.414;0.018;2022-12-29T00:59:14;10.10;99.90
42187;DHT22;27858;51.414;0.018;2022-12-29T01:01:41;9.90;99.90
42187;DHT22;27858;51.414;0.018;2022-12-29T01:04:08;10.00;99.90
42187;DHT22;27858;51.414;0.018;2022-12-29T01:06:37;9.90;99.90
42187;DHT22;27858;51.414;0.018;2022-12-29T01:09:05;10.00;99.90
42187;DHT22;27858;51.414;0.018;2022-12-29T01:11:50;10.10;99.90
42187;DHT22;27858;51.414;0.018;2022-12-29T01:14:18;10.10;99.90
42187;DHT22;27858;51.414;0.018;2022-12-29T01:16:46;10.10;99.90
42187;DHT22;27858;51.414;0.018;2022-12-29T01:19:14;10.10;99.90
42187;DHT22;27858;51.414;0.018;2022-12-29T01:21:44;10.10;99.90
42187;DHT22;27858;51.414;0.018;2022-12-29T01:24:11;10.00;99.90
42187;DHT22;27858;51.414;0.018;2022-12-29T01:26:37;10.10;99.90
42187;DHT22;27858;51.414;0.018;2022-12-29T01:29:04;10.00;99.90
42187;DHT22;27858;51.414;0.018;2022-12-29T01:31:31;10.10;99.90
42187;DHT22;27858;51.414;0.018;2022-12-29T01:33:58;10.00;99.90
42187;DHT22;27858;51.414;0.018;2022-12-29T01:36:25;10.00;99.90
42187;DHT22;27858;51.414;0.018;2022-12-29T01:38:52;10.00;99.90
42187;DHT22;27858;51.414;0.018;2022-12-29T01:41:18;10.00;99.90
42187;DHT22;27858;51.414;0.018;2022-12-29T01:43:55;10.00;99.90
42187;DHT22;27858;51.414;0.018;2022-12-29T01:49:10;9.90;99.90
42187;DHT22;27858;51.414;0.018;2022-12-29T01:51:47;9.90;99.90
42187;DHT22;27858;51.414;0.018;2022-12-29T01:54:23;9.90;99.90
42187;DHT22;27858;51.414;0.018;2022-12-29T01:56:53;9.70;99.90
42187;DHT22;27858;51.414;0.018;2022-12-29T01:59:25;9.70;99.90
42187;DHT22;27858;51.414;0.018;2022-12-29T02:01:54;9.80;99.90
42187;DHT22;27858;51.414;0.018;2022-12-29T02:04:22;9.70;99.90
42187;DHT22;27858;51.414;0.018;2022-12-29T02:06:54;9.70;99.90
42187;DHT22;27858;51.414;0.018;2022-12-29T02:09:22;9.80;99.90
42187;DHT22;27858;51.414;0.018;2022-12-29T02:11:50;9.60;99.90
42187;DHT22;27858;51.414;0.018;2022-12-29T02:14:17;9.70;99.90
42187;DHT22;27858;51.414;0.018;2022-12-29T02:40:28;9.80;99.90
42187;DHT22;27858;51.414;0.018;2022-12-29T02:43:09;9.80;99.90
42187;DHT22;27858;51.414;0.018;2022-12-29T02:45:51;9.80;99.90
42187;DHT22;27858;51.414;0.018;2022-12-29T02:48:41;9.90;99.90
42187;DHT22;27858;51.414;0.018;2022-12-29T02:51:15;9.90;99.90
42187;DHT22;27858;51.414;0.018;2022-12-29T02:53:45;10.00;99.90
42187;DHT22;27858;51.414;0.018;2022-12-29T02:56:31;10.00;92.50
42187;DHT22;27858;51.414;0.018;2022-12-29T02:58:58;10.00;94.70
42187;DHT22;27858;51.414;0.018;2022-12-29T03:07:49;10.00;98.00
42187;DHT22;27858;51.414;0.018;2022-12-29T03:13:49;9.90;99.90
42187;DHT22;27858;51.414;0.018;2022-12-29T03:16:18;9.90;88.80
42187;DHT22;27858;51.414;0.018;2022-12-29T03:18:57;10.10;77.50
42187;DHT22;27858;51.414;0.018;2022-12-29T03:21:46;10.00;75.70
42187;DHT22;27858;51.414;0.018;2022-12-29T03:24:39;10.00;69.10
42187;DHT22;27858;51.414;0.018;2022-12-29T03:27:10;10.00;64.60
42187;DHT22;27858;51.414;0.018;2022-12-29T03:29:40;10.10;83.20
42187;DHT22;27858;51.414;0.018;2022-12-29T03:32:09;10.20;54.50
42187;DHT22;27858;51.414;0.018;2022-12-29T03:34:38;10.30;43.30
42187;DHT22;27858;51.414;0.018;2022-12-29T03:37:12;10.30;44.10
42187;DHT22;27858;51.414;0.018;2022-12-29T03:39:40;10.30;44.50
42187;DHT22;27858;51.414;0.018;2022-12-29T03:42:13;10.40;26.10
42187;DHT22;27858;51.414;0.018;2022-12-29T03:44:42;10.30;28.50
42187;DHT22;27858;51.414;0.018;2022-12-29T03:47:11;10.30;44.90
42187;DHT22;27858;51.414;0.018;2022-12-29T03:49:38;10.30;43.60
42187;DHT22;27858;51.414;0.018;2022-12-29T03:52:05;10.30;64.40
42187;DHT22;27858;51.414;0.018;2022-12-29T03:54:32;10.20;78.10
42187;DHT22;27858;51.414;0.018;2022-12-29T03:56:59;10.30;94.00
42187;DHT22;27858;51.414;0.018;2022-12-29T03:59:26;10.30;89.20
42187;DHT22;27858;51.414;0.018;2022-12-29T04:01:53;10.30;85.70
42187;DHT22;27858;51.414;0.018;2022-12-29T04:04:19;10.40;72.00
42187;DHT22;27858;51.414;0.018;2022-12-29T04:06:46;10.40;80.20
42187;DHT22;27858;51.414;0.018;2022-12-29T04:09:13;10.30;80.90
42187;DHT22;27858;51.414;0.018;2022-12-29T04:11:40;10.40;90.10
42187;DHT22;27858;51.414;0.018;2022-12-29T04:14:06;10.30;89.60
42187;DHT22;27858;51.414;0.018;2022-12-29T04:16:33;10.40;89.80
42187;DHT22;27858;51.414;0.018;2022-12-29T04:19:02;10.40;81.40
42187;DHT22;27858;51.414;0.018;2022-12-29T04:21:29;10.40;94.60
42187;DHT22;27858;51.414;0.018;2022-12-29T04:23:55;10.40;99.90
42187;DHT22;27858;51.414;0.018;2022-12-29T04:26:22;10.30;99.90
42187;DHT22;27858;51.414;0.018;2022-12-29T04:28:49;10.30;99.90
42187;DHT22;27858;51.414;0.018;2022-12-29T04:31:16;10.00;99.90
42187;DHT22;27858;51.414;0.018;2022-12-29T04:33:44;10.00;99.90
42187;DHT22;27858;51.414;0.018;2022-12-29T04:36:10;9.90;99.90
42187;DHT22;27858;51.414;0.018;2022-12-29T04:38:37;9.80;99.90
42187;DHT22;27858;51.414;0.018;2022-12-29T04:41:04;10.00;99.90
42187;DHT22;27858;51.414;0.018;2022-12-29T04:43:31;10.00;99.90
42187;DHT22;27858;51.414;0.018;2022-12-29T04:45:57;10.10;99.90
42187;DHT22;27858;51.414;0.018;2022-12-29T04:48:24;10.00;99.90
42187;DHT22;27858;51.414;0.018;2022-12-29T04:50:51;9.90;99.90
42187;DHT22;27858;51.414;0.018;2022-12-29T04:53:18;10.00;99.90
42187;DHT22;27858;51.414;0.018;2022-12-29T04:55:49;10.00;99.90
42187;DHT22;27858;51.414;0.018;2022-12-29T04:58:15;10.00;99.90
42187;DHT22;27858;51.414;0.018;2022-12-29T05:00:48;10.00;99.90
42187;DHT22;27858;51.414;0.018;2022-12-29T05:03:16;10.00;99.90
42187;DHT22;27858;51.414;0.018;2022-12-29T05:05:43;9.90;99.90
42187;DHT22;27858;51.414;0.018;2022-12-29T05:08:10;10.00;99.90
42187;DHT22;27858;51.414;0.018;2022-12-29T05:10:37;10.10;99.90
42187;DHT22;27858;51.414;0.018;2022-12-29T05:13:04;9.90;99.90
42187;DHT22;27858;51.414;0.018;2022-12-29T05:15:31;9.90;99.90
42187;DHT22;27858;51.414;0.018;2022-12-29T05:17:57;10.00;99.90
42187;DHT22;27858;51.414;0.018;2022-12-29T05:20:24;10.00;99.90
42187;DHT22;27858;51.414;0.018;2022-12-29T05:22:51;9.90;99.90
42187;DHT22;27858;51.414;0.018;2022-12-29T05:25:18;9.80;99.90
42187;DHT22;27858;51.414;0.018;2022-12-29T05:27:44;10.00;99.90
42187;DHT22;27858;51.414;0.018;2022-12-29T05:30:11;9.80;99.90
42187;DHT22;27858;51.414;0.018;2022-12-29T05:32:39;9.70;99.90
42187;DHT22;27858;51.414;0.018;2022-12-29T05:35:06;9.90;99.90
42187;DHT22;27858;51.414;0.018;2022-12-29T05:37:33;9.70;99.90
42187;DHT22;27858;51.414;0.018;2022-12-29T05:40:00;10.00;99.90
42187;DHT22;27858;51.414;0.018;2022-12-29T05:42:26;10.00;99.90
42187;DHT22;27858;51.414;0.018;2022-12-29T05:44:53;9.90;99.90
42187;DHT22;27858;51.414;0.018;2022-12-29T05:47:20;9.80;99.90
42187;DHT22;27858;51.414;0.018;2022-12-29T05:49:47;9.80;99.90
42187;DHT22;27858;51.414;0.018;2022-12-29T05:52:14;10.00;99.90
42187;DHT22;27858;51.414;0.018;2022-12-29T05:54:40;10.10;99.90
42187;DHT22;27858;51.414;0.018;2022-12-29T05:57:07;10.10;99.90
42187;DHT22;27858;51.414;0.018;2022-12-29T05:59:34;10.10;99.90
42187;DHT22;27858;51.414;0.018;2022-12-29T06:02:01;10.20;99.90
42187;DHT22;27858;51.414;0.018;2022-12-29T06:04:28;10.10;99.90
42187;DHT22;27858;51.414;0.018;2022-12-29T06:06:55;10.20;99.90
42187;DHT22;27858;51.414;0.018;2022-12-29T06:09:21;10.00;99.90
42187;DHT22;27858;51.414;0.018;2022-12-29T06:11:48;10.20;99.90
42187;DHT22;27858;51.414;0.018;2022-12-29T06:14:15;10.00;99.90
42187;DHT22;27858;51.414;0.018;2022-12-29T06:16:42;10.00;99.90
42187;DHT22;27858;51.414;0.018;2022-12-29T06:19:09;10.00;99.90
42187;DHT22;27858;51.414;0.018;2022-12-29T06:21:36;10.00;99.90
42187;DHT22;27858;51.414;0.018;2022-12-29T06:24:04;10.00;99.90
42187;DHT22;27858;51.414;0.018;2022-12-29T06:26:31;9.90;99.90
42187;DHT22;27858;51.414;0.018;2022-12-29T06:28:58;9.90;99.90
42187;DHT22;27858;51.414;0.018;2022-12-29T06:31:25;9.80;99.90
42187;DHT22;27858;51.414;0.018;2022-12-29T06:33:52;9.80;99.90
42187;DHT22;27858;51.414;0.018;2022-12-29T06:36:19;9.80;99.90
42187;DHT22;27858;51.414;0.018;2022-12-29T06:38:46;9.80;99.90
42187;DHT22;27858;51.414;0.018;2022-12-29T06:41:13;9.70;99.90
42187;DHT22;27858;51.414;0.018;2022-12-29T06:43:39;9.60;99.90
42187;DHT22;27858;51.414;0.018;2022-12-29T06:46:06;9.60;99.90
42187;DHT22;27858;51.414;0.018;2022-12-29T06:48:33;9.60;99.90
42187;DHT22;27858;51.414;0.018;2022-12-29T06:50:59;9.60;99.90
42187;DHT22;27858;51.414;0.018;2022-12-29T06:53:26;9.60;99.90
42187;DHT22;27858;51.414;0.018;2022-12-29T06:55:53;9.60;99.90
42187;DHT22;27858;51.414;0.018;2022-12-29T06:58:20;9.50;99.90
42187;DHT22;27858;51.414;0.018;2022-12-29T07:00:47;9.50;99.90
42187;DHT22;27858;51.414;0.018;2022-12-29T07:03:14;9.40;99.90
42187;DHT22;27858;51.414;0.018;2022-12-29T07:05:42;9.50;99.90
42187;DHT22;27858;51.414;0.018;2022-12-29T07:08:09;9.50;99.90
42187;DHT22;27858;51.414;0.018;2022-12-29T07:10:36;9.40;99.90
42187;DHT22;27858;51.414;0.018;2022-12-29T07:13:02;9.40;99.90
42187;DHT22;27858;51.414;0.018;2022-12-29T07:15:29;9.40;99.90
42187;DHT22;27858;51.414;0.018;2022-12-29T07:17:56;9.30;99.90
42187;DHT22;27858;51.414;0.018;2022-12-29T07:20:23;9.30;99.90
42187;DHT22;27858;51.414;0.018;2022-12-29T07:22:55;9.30;99.90
42187;DHT22;27858;51.414;0.018;2022-12-29T07:25:22;9.30;99.90
42187;DHT22;27858;51.414;0.018;2022-12-29T07:27:49;9.20;99.90
42187;DHT22;27858;51.414;0.018;2022-12-29T07:30:16;9.10;99.90
42187;DHT22;27858;51.414;0.018;2022-12-29T07:32:43;9.20;99.90
42187;DHT22;27858;51.414;0.018;2022-12-29T07:35:10;9.10;99.90
42187;DHT22;27858;51.414;0.018;2022-12-29T07:37:36;9.00;99.90
42187;DHT22;27858;51.414;0.018;2022-12-29T07:40:04;9.00;99.90
42187;DHT22;27858;51.414;0.018;2022-12-29T07:42:31;9.10;99.90
42187;DHT22;27858;51.414;0.018;2022-12-29T07:44:58;9.00;99.90
42187;DHT22;27858;51.414;0.018;2022-12-29T07:47:25;9.10;99.90
42187;DHT22;27858;51.414;0.018;2022-12-29T07:49:52;9.20;99.90
42187;DHT22;27858;51.414;0.018;2022-12-29T07:52:19;9.10;99.90
42187;DHT22;27858;51.414;0.018;2022-12-29T07:54:46;9.10;99.90
42187;DHT22;27858;51.414;0.018;2022-12-29T07:57:13;9.10;99.90
42187;DHT22;27858;51.414;0.018;2022-12-29T07:59:39;9.10;99.90
42187;DHT22;27858;51.414;0.018;2022-12-29T08:02:09;9.00;99.90
42187;DHT22;27858;51.414;0.018;2022-12-29T08:04:37;9.10;99.90
42187;DHT22;27858;51.414;0.018;2022-12-29T08:07:03;9.10;99.90
42187;DHT22;27858;51.414;0.018;2022-12-29T08:09:30;9.00;99.90
42187;DHT22;27858;51.414;0.018;2022-12-29T08:11:57;9.10;99.90
42187;DHT22;27858;51.414;0.018;2022-12-29T08:14:23;9.10;99.90
42187;DHT22;27858;51.414;0.018;2022-12-29T08:16:50;9.10;99.90
42187;DHT22;27858;51.414;0.018;2022-12-29T08:19:17;9.10;99.90
42187;DHT22;27858;51.414;0.018;2022-12-29T08:21:44;9.10;99.90
42187;DHT22;27858;51.414;0.018;2022-12-29T08:24:14;9.00;99.90
42187;DHT22;27858;51.414;0.018;2022-12-29T08:26:42;9.00;99.90
42187;DHT22;27858;51.414;0.018;2022-12-29T08:29:08;9.00;99.90
42187;DHT22;27858;51.414;0.018;2022-12-29T08:31:35;8.90;99.90
42187;DHT22;27858;51.414;0.018;2022-12-29T08:34:02;8.90;99.90
42187;DHT22;27858;51.414;0.018;2022-12-29T08:36:30;8.80;99.90
42187;DHT22;27858;51.414;0.018;2022-12-29T08:38:57;8.90;99.90
42187;DHT22;27858;51.414;0.018;2022-12-29T08:41:24;8.90;99.90
42187;DHT22;27858;51.414;0.018;2022-12-29T08:43:50;8.90;99.90
42187;DHT22;27858;51.414;0.018;2022-12-29T08:46:17;9.00;99.90
42187;DHT22;27858;51.414;0.018;2022-12-29T08:48:44;8.90;99.90
42187;DHT22;27858;51.414;0.018;2022-12-29T08:51:11;9.00;99.90
42187;DHT22;27858;51.414;0.018;2022-12-29T08:53:38;8.90;99.90
42187;DHT22;27858;51.414;0.018;2022-12-29T08:56:05;9.00;99.90
42187;DHT22;27858;51.414;0.018;2022-12-29T08:58:32;8.90;99.90
42187;DHT22;27858;51.414;0.018;2022-12-29T09:00:59;8.90;99.90
42187;DHT22;27858;51.414;0.018;2022-12-29T09:03:26;9.00;99.90
42187;DHT22;27858;51.414;0.018;2022-12-29T09:06:14;9.00;99.90
42187;DHT22;27858;51.414;0.018;2022-12-29T09:08:41;9.10;99.90
42187;DHT22;27858;51.414;0.018;2022-12-29T09:11:27;9.10;99.90
42187;DHT22;27858;51.414;0.018;2022-12-29T09:13:57;9.10;99.90
42187;DHT22;27858;51.414;0.018;2022-12-29T09:16:24;9.20;99.90
42187;DHT22;27858;51.414;0.018;2022-12-29T09:18:51;9.20;99.90
42187;DHT22;27858;51.414;0.018;2022-12-29T09:21:18;9.20;99.90
42187;DHT22;27858;51.414;0.018;2022-12-29T09:23:45;9.10;99.90
42187;DHT22;27858;51.414;0.018;2022-12-29T09:26:11;9.10;99.90
42187;DHT22;27858;51.414;0.018;2022-12-29T09:28:38;9.20;99.90
42187;DHT22;27858;51.414;0.018;2022-12-29T09:31:05;9.10;99.90
42187;DHT22;27858;51.414;0.018;2022-12-29T09:33:32;9.10;99.90
42187;DHT22;27858;51.414;0.018;2022-12-29T09:36:03;9.20;99.90
42187;DHT22;27858;51.414;0.018;2022-12-29T09:38:30;9.10;99.90
42187;DHT22;27858;51.414;0.018;2022-12-29T09:41:06;9.20;99.90
42187;DHT22;27858;51.414;0.018;2022-12-29T09:46:48;9.20;99.90
42187;DHT22;27858;51.414;0.018;2022-12-29T09:49:42;9.30;99.90
42187;DHT22;27858;51.414;0.018;2022-12-29T09:52:36;9.20;99.90
42187;DHT22;27858;51.414;0.018;2022-12-29T09:55:16;9.40;99.90
42187;DHT22;27858;51.414;0.018;2022-12-29T09:58:13;9.30;99.90
42187;DHT22;27858;51.414;0.018;2022-12-29T10:01:00;9.40;99.90
42187;DHT22;27858;51.414;0.018;2022-12-29T10:03:45;9.40;99.90
42187;DHT22;27858;51.414;0.018;2022-12-29T10:09:45;9.50;99.90
42187;DHT22;27858;51.414;0.018;2022-12-29T10:18:06;9.60;99.90
42187;DHT22;27858;51.414;0.018;2022-12-29T10:21:01;9.60;99.90
42187;DHT22;27858;51.414;0.018;2022-12-29T10:23:53;9.70;90.30
42187;DHT22;27858;51.414;0.018;2022-12-29T10:26:25;9.60;89.80
42187;DHT22;27858;51.414;0.018;2022-12-29T10:29:10;9.50;92.80
42187;DHT22;27858;51.414;0.018;2022-12-29T10:31:43;9.60;83.50
42187;DHT22;27858;51.414;0.018;2022-12-29T10:36:54;9.50;76.00
42187;DHT22;27858;51.414;0.018;2022-12-29T10:39:33;9.40;67.50
42187;DHT22;27858;51.414;0.018;2022-12-29T10:42:36;9.40;61.80
42187;DHT22;27858;51.414;0.018;2022-12-29T10:45:04;9.40;64.00
42187;DHT22;27858;51.414;0.018;2022-12-29T10:47:37;9.50;54.20
42187;DHT22;27858;51.414;0.018;2022-12-29T10:50:04;9.40;53.90
42187;DHT22;27858;51.414;0.018;2022-12-29T10:52:32;9.40;64.40
42187;DHT22;27858;51.414;0.018;2022-12-29T10:55:03;9.40;58.60
42187;DHT22;27858;51.414;0.018;2022-12-29T10:57:40;9.40;64.00
42187;DHT22;27858;51.414;0.018;2022-12-29T11:00:13;9.50;60.90
42187;DHT22;27858;51.414;0.018;2022-12-29T11:08:27;9.50;52.00
42187;DHT22;27858;51.414;0.018;2022-12-29T11:11:04;9.50;49.90
42187;DHT22;27858;51.414;0.018;2022-12-29T11:13:34;9.40;55.30
42187;DHT22;27858;51.414;0.018;2022-12-29T11:16:05;9.50;41.50
42187;DHT22;27858;51.414;0.018;2022-12-29T11:18:39;9.50;35.00
42187;DHT22;27858;51.414;0.018;2022-12-29T11:26:52;9.50;28.90
42187;DHT22;27858;51.414;0.018;2022-12-29T11:29:38;9.50;28.80
42187;DHT22;27858;51.414;0.018;2022-12-29T11:32:23;9.60;9.30
42187;DHT22;27858;51.414;0.018;2022-12-29T11:34:57;9.50;2.10
42187;DHT22;27858;51.414;0.018;2022-12-29T11:37:29;9.60;1.00
42187;DHT22;27858;51.414;0.018;2022-12-29T11:39:57;9.60;1.00
42187;DHT22;27858;51.414;0.018;2022-12-29T11:45:25;9.60;1.00
42187;DHT22;27858;51.414;0.018;2022-12-29T11:47:59;9.70;1.00
42187;DHT22;27858;51.414;0.018;2022-12-29T11:50:32;9.70;1.00
42187;DHT22;27858;51.414;0.018;2022-12-29T11:53:22;9.70;1.00
42187;DHT22;27858;51.414;0.018;2022-12-29T11:55:55;9.70;1.00
42187;DHT22;27858;51.414;0.018;2022-12-29T11:58:30;9.70;1.00
42187;DHT22;27858;51.414;0.018;2022-12-29T12:01:07;9.70;1.00
42187;DHT22;27858;51.414;0.018;2022-12-29T12:03:43;9.70;1.00
42187;DHT22;27858;51.414;0.018;2022-12-29T12:06:16;9.70;1.00
42187;DHT22;27858;51.414;0.018;2022-12-29T12:08:53;9.80;1.00
42187;DHT22;27858;51.414;0.018;2022-12-29T12:11:29;9.60;1.00
42187;DHT22;27858;51.414;0.018;2022-12-29T12:22:31;9.70;1.00
42187;DHT22;27858;51.414;0.018;2022-12-29T12:25:00;9.70;1.00
42187;DHT22;27858;51.414;0.018;2022-12-29T12:27:38;9.60;1.00
42187;DHT22;27858;51.414;0.018;2022-12-29T12:30:13;9.60;1.00
42187;DHT22;27858;51.414;0.018;2022-12-29T12:41:11;9.60;1.00
42187;DHT22;27858;51.414;0.018;2022-12-29T12:43:49;9.60;1.00
42187;DHT22;27858;51.414;0.018;2022-12-29T12:54:31;9.60;1.00
42187;DHT22;27858;51.414;0.018;2022-12-29T13:00:16;9.70;99.90
42187;DHT22;27858;51.414;0.018;2022-12-29T13:03:13;9.70;1.00
42187;DHT22;27858;51.414;0.018;2022-12-29T13:17:56;10.00;99.90
42187;DHT22;27858;51.414;0.018;2022-12-29T13:28:54;10.00;99.90
42187;DHT22;27858;51.414;0.018;2022-12-29T13:34:36;10.00;99.90
42187;DHT22;27858;51.414;0.018;2022-12-29T13:37:12;10.00;99.90
42187;DHT22;27858;51.414;0.018;2022-12-29T13:39:49;10.00;99.90
42187;DHT22;27858;51.414;0.018;2022-12-29T13:42:19;10.10;99.90
42187;DHT22;27858;51.414;0.018;2022-12-29T13:44:56;10.20;99.90
42187;DHT22;27858;51.414;0.018;2022-12-29T13:47:33;10.20;99.90
42187;DHT22;27858;51.414;0.018;2022-12-29T13:50:08;10.30;99.90
42187;DHT22;27858;51.414;0.018;2022-12-29T13:55:53;10.30;99.90
42187;DHT22;27858;51.414;0.018;2022-12-29T13:58:51;10.40;99.90
42187;DHT22;27858;51.414;0.018;2022-12-29T14:01:56;10.30;99.90
42187;DHT22;27858;51.414;0.018;2022-12-29T14:04:24;10.20;99.90
42187;DHT22;27858;51.414;0.018;2022-12-29T14:09:53;10.00;99.90
42187;DHT22;27858;51.414;0.018;2022-12-29T14:12:43;9.90;99.90
42187;DHT22;27858;51.414;0.018;2022-12-29T14:17:37;9.90;99.90
42187;DHT22;27858;51.414;0.018;2022-12-29T14:20:17;9.80;99.90
42187;DHT22;27858;51.414;0.018;2022-12-29T14:22:59;9.80;99.90
42187;DHT22;27858;51.414;0.018;2022-12-29T14:28:27;9.90;99.90
42187;DHT22;27858;51.414;0.018;2022-12-29T14:30:59;9.80;99.90
42187;DHT22;27858;51.414;0.018;2022-12-29T14:33:29;9.90;99.90
42187;DHT22;27858;51.414;0.018;2022-12-29T14:36:21;9.80;99.90
42187;DHT22;27858;51.414;0.018;2022-12-29T14:38:50;9.80;99.90
42187;DHT22;27858;51.414;0.018;2022-12-29T14:41:38;9.80;99.90
42187;DHT22;27858;51.414;0.018;2022-12-29T14:44:18;9.80;99.90
42187;DHT22;27858;51.414;0.018;2022-12-29T14:49:18;9.80;99.90
42187;DHT22;27858;51.414;0.018;2022-12-29T14:51:47;9.80;99.90
42187;DHT22;27858;51.414;0.018;2022-12-29T14:57:06;9.70;99.90
42187;DHT22;27858;51.414;0.018;2022-12-29T14:59:35;9.70;99.90
42187;DHT22;27858;51.414;0.018;2022-12-29T15:02:10;9.70;99.90
42187;DHT22;27858;51.414;0.018;2022-12-29T15:04:39;9.70;99.90
42187;DHT22;27858;51.414;0.018;2022-12-29T15:07:09;9.60;99.90
42187;DHT22;27858;51.414;0.018;2022-12-29T15:09:37;9.50;99.90
42187;DHT22;27858;51.414;0.018;2022-12-29T15:12:32;9.50;99.90
42187;DHT22;27858;51.414;0.018;2022-12-29T15:15:02;9.60;99.90
42187;DHT22;27858;51.414;0.018;2022-12-29T15:17:42;9.60;99.90
42187;DHT22;27858;51.414;0.018;2022-12-29T15:20:30;9.60;99.90
42187;DHT22;27858;51.414;0.018;2022-12-29T15:23:02;9.60;99.90
42187;DHT22;27858;51.414;0.018;2022-12-29T15:25:30;9.50;99.90
42187;DHT22;27858;51.414;0.018;2022-12-29T15:28:01;9.50;99.90
42187;DHT22;27858;51.414;0.018;2022-12-29T15:30:28;9.50;99.90
42187;DHT22;27858;51.414;0.018;2022-12-29T15:32:55;9.50;99.90
42187;DHT22;27858;51.414;0.018;2022-12-29T15:37:52;9.30;99.90
42187;DHT22;27858;51.414;0.018;2022-12-29T15:43:08;9.30;99.90
42187;DHT22;27858;51.414;0.018;2022-12-29T15:45:38;9.30;99.90
42187;DHT22;27858;51.414;0.018;2022-12-29T15:48:13;9.20;99.90
42187;DHT22;27858;51.414;0.018;2022-12-29T15:50:41;9.20;99.90
42187;DHT22;27858;51.414;0.018;2022-12-29T15:53:12;9.10;99.90
42187;DHT22;27858;51.414;0.018;2022-12-29T15:55:41;9.20;99.90
42187;DHT22;27858;51.414;0.018;2022-12-29T15:58:23;9.20;99.90
42187;DHT22;27858;51.414;0.018;2022-12-29T16:00:56;9.10;99.90
42187;DHT22;27858;51.414;0.018;2022-12-29T16:03:26;9.10;99.90
42187;DHT22;27858;51.414;0.018;2022-12-29T16:06:21;9.10;99.90
42187;DHT22;27858;51.414;0.018;2022-12-29T16:09:05;9.10;99.90
42187;DHT22;27858;51.414;0.018;2022-12-29T16:11:38;9.10;99.90
42187;DHT22;27858;51.414;0.018;2022-12-29T16:14:14;9.00;99.90
42187;DHT22;27858;51.414;0.018;2022-12-29T16:16:43;9.00;99.90
42187;DHT22;27858;51.414;0.018;2022-12-29T16:21:45;9.00;99.90
42187;DHT22;27858;51.414;0.018;2022-12-29T16:24:15;9.00;99.90
42187;DHT22;27858;51.414;0.018;2022-12-29T16:26:48;8.90;99.90
42187;DHT22;27858;51.414;0.018;2022-12-29T16:29:16;8.90;99.90
42187;DHT22;27858;51.414;0.018;2022-12-29T16:31:58;8.80;99.90
42187;DHT22;27858;51.414;0.018;2022-12-29T16:34:31;8.80;99.90
42187;DHT22;27858;51.414;0.018;2022-12-29T16:37:03;8.80;99.90
42187;DHT22;27858;51.414;0.018;2022-12-29T16:39:33;8.80;99.90
42187;DHT22;27858;51.414;0.018;2022-12-29T16:42:00;8.80;99.90
42187;DHT22;27858;51.414;0.018;2022-12-29T16:44:29;8.90;99.90
42187;DHT22;27858;51.414;0.018;2022-12-29T16:49:26;8.90;99.90
42187;DHT22;27858;51.414;0.018;2022-12-29T16:51:54;8.90;99.90
42187;DHT22;27858;51.414;0.018;2022-12-29T16:54:31;8.80;99.90
42187;DHT22;27858;51.414;0.018;2022-12-29T16:56:59;8.80;99.90
42187;DHT22;27858;51.414;0.018;2022-12-29T16:59:53;8.80;99.90
42187;DHT22;27858;51.414;0.018;2022-12-29T17:02:23;8.70;99.90
42187;DHT22;27858;51.414;0.018;2022-12-29T17:04:50;8.70;99.90
42187;DHT22;27858;51.414;0.018;2022-12-29T17:07:22;8.70;99.90
42187;DHT22;27858;51.414;0.018;2022-12-29T17:09:50;8.60;99.90
42187;DHT22;27858;51.414;0.018;2022-12-29T17:12:28;8.60;99.90
42187;DHT22;27858;51.414;0.018;2022-12-29T17:15:00;8.50;99.90
42187;DHT22;27858;51.414;0.018;2022-12-29T17:17:37;8.50;99.90
42187;DHT22;27858;51.414;0.018;2022-12-29T17:22:36;8.50;99.90
42187;DHT22;27858;51.414;0.018;2022-12-29T17:25:03;8.50;99.90
42187;DHT22;27858;51.414;0.018;2022-12-29T17:30:32;8.40;1.00
42187;DHT22;27858;51.414;0.018;2022-12-29T17:33:04;8.40;1.00
42187;DHT22;27858;51.414;0.018;2022-12-29T17:35:31;8.40;1.00
42187;DHT22;27858;51.414;0.018;2022-12-29T17:37:58;8.40;1.00
42187;DHT22;27858;51.414;0.018;2022-12-29T17:40:29;8.40;1.00
42187;DHT22;27858;51.414;0.018;2022-12-29T17:42:58;8.30;1.00
42187;DHT22;27858;51.414;0.018;2022-12-29T17:45:28;8.30;1.00
42187;DHT22;27858;51.414;0.018;2022-12-29T17:47:55;8.30;1.00
42187;DHT22;27858;51.414;0.018;2022-12-29T17:50:26;8.20;1.00
42187;DHT22;27858;51.414;0.018;2022-12-29T17:53:09;8.20;1.00
42187;DHT22;27858;51.414;0.018;2022-12-29T17:55:37;8.20;1.00
42187;DHT22;27858;51.414;0.018;2022-12-29T17:58:24;8.20;1.00
42187;DHT22;27858;51.414;0.018;2022-12-29T18:00:53;8.20;1.00
42187;DHT22;27858;51.414;0.018;2022-12-29T18:03:30;8.10;1.00
42187;DHT22;27858;51.414;0.018;2022-12-29T18:05:58;8.20;1.00
42187;DHT22;27858;51.414;0.018;2022-12-29T18:08:24;8.20;1.00
42187;DHT22;27858;51.414;0.018;2022-12-29T18:10:54;8.10;1.00
42187;DHT22;27858;51.414;0.018;2022-12-29T18:13:26;8.10;1.00
42187;DHT22;27858;51.414;0.018;2022-12-29T18:16:10;8.10;1.00
42187;DHT22;27858;51.414;0.018;2022-12-29T18:18:37;8.10;1.00
42187;DHT22;27858;51.414;0.018;2022-12-29T18:21:04;8.10;1.00
42187;DHT22;27858;51.414;0.018;2022-12-29T18:23:32;8.10;1.00
42187;DHT22;27858;51.414;0.018;2022-12-29T18:26:11;8.10;1.00
42187;DHT22;27858;51.414;0.018;2022-12-29T18:28:40;8.00;1.00
42187;DHT22;27858;51.414;0.018;2022-12-29T18:31:22;8.00;1.00
42187;DHT22;27858;51.414;0.018;2022-12-29T18:33:51;8.00;1.00
42187;DHT22;27858;51.414;0.018;2022-12-29T18:36:19;8.00;1.00
42187;DHT22;27858;51.414;0.018;2022-12-29T18:38:46;7.90;1.00
42187;DHT22;27858;51.414;0.018;2022-12-29T18:41:22;7.90;1.00